createdAt,value
2019-04-01T00:01:02.379Z,0.50
2019-04-01T00:03:30.098Z,0.60
2019-04-01T00:05:57.443Z,0.53
2019-04-01T00:08:24.754Z,0.57
2019-04-01T00:10:52.104Z,0.67
2019-04-01T00:13:19.424Z,0.43
2019-04-01T00:15:46.784Z,0.50
2019-04-01T00:18:14.160Z,0.47
2019-04-01T00:20:41.371Z,0.50
2019-04-01T00:23:08.804Z,0.60
2019-04-01T00:25:36.163Z,0.60
2019-04-01T00:28:03.482Z,0.40
2019-04-01T00:30:30.736Z,0.60
2019-04-01T00:32:58.058Z,0.60
2019-04-01T00:35:25.409Z,0.60
2019-04-01T00:37:52.961Z,0.50
2019-04-01T00:40:20.184Z,0.30
2019-04-01T00:42:52.394Z,0.60
2019-04-01T00:45:20.952Z,0.60
2019-04-01T00:47:48.261Z,0.50
2019-04-01T00:50:15.515Z,0.47
2019-04-01T00:52:42.770Z,0.57
2019-04-01T00:55:10.141Z,0.30
2019-04-01T00:57:37.475Z,0.60
2019-04-01T01:00:06.455Z,0.53
2019-04-01T01:02:33.676Z,0.50
2019-04-01T01:05:00.943Z,0.50
2019-04-01T01:07:28.151Z,0.50
2019-04-01T01:09:55.387Z,0.50
2019-04-01T01:12:22.757Z,0.63
2019-04-01T01:14:50.089Z,0.50
2019-04-01T01:17:17.414Z,0.60
2019-04-01T01:19:44.784Z,0.50
2019-04-01T01:22:12.243Z,0.57
2019-04-01T01:24:39.561Z,0.50
2019-04-01T01:27:06.913Z,0.47
2019-04-01T01:29:34.238Z,0.53
2019-04-01T01:32:01.532Z,0.50
2019-04-01T01:34:28.856Z,0.67
2019-04-01T01:36:56.174Z,0.40
2019-04-01T01:39:23.417Z,0.40
2019-04-01T01:41:50.775Z,0.60
2019-04-01T01:44:17.984Z,0.40
2019-04-01T01:46:45.344Z,0.37
2019-04-01T01:49:12.698Z,0.50
2019-04-01T01:51:39.923Z,0.50
2019-04-01T01:54:07.397Z,0.50
2019-04-01T01:56:34.745Z,0.37
2019-04-01T01:59:02.004Z,0.40
2019-04-01T02:01:29.368Z,0.50
2019-04-01T02:03:56.715Z,0.50
2019-04-01T02:06:24.160Z,0.37
2019-04-01T02:08:51.493Z,0.67
2019-04-01T02:11:18.830Z,0.40
2019-04-01T02:13:46.065Z,0.53
2019-04-01T02:16:13.419Z,0.50
2019-04-01T02:18:40.635Z,0.90
2019-04-01T02:21:07.892Z,0.50
2019-04-01T02:23:35.038Z,0.50
2019-04-01T02:26:02.659Z,0.70
2019-04-01T02:28:29.980Z,0.47
2019-04-01T02:30:57.242Z,0.33
2019-04-01T02:33:24.460Z,0.50
2019-04-01T02:35:51.823Z,0.40
2019-04-01T02:38:19.140Z,0.30
2019-04-01T02:40:46.494Z,0.30
2019-04-01T02:43:13.722Z,0.57
2019-04-01T02:45:41.064Z,0.47
2019-04-01T02:48:08.209Z,0.50
2019-04-01T02:50:35.575Z,0.40
2019-04-01T02:53:02.926Z,0.50
2019-04-01T02:55:30.540Z,0.40
2019-04-01T02:57:57.883Z,0.80
2019-04-01T03:00:25.201Z,0.33
2019-04-01T03:02:52.651Z,0.30
2019-04-01T03:05:21.174Z,0.50
2019-04-01T03:07:49.697Z,0.47
2019-04-01T03:10:17.072Z,0.57
2019-04-01T03:12:44.483Z,0.40
2019-04-01T03:15:11.848Z,0.50
2019-04-01T03:17:39.484Z,0.70
2019-04-01T03:20:07.154Z,0.60
2019-04-01T03:22:34.602Z,0.57
2019-04-01T03:25:02.164Z,0.40
2019-04-01T03:27:29.491Z,0.50
2019-04-01T03:29:56.810Z,0.50
2019-04-01T03:32:24.170Z,0.60
2019-04-01T03:34:51.501Z,0.50
2019-04-01T03:37:18.841Z,0.57
2019-04-01T03:39:46.408Z,0.50
2019-04-01T03:42:13.632Z,0.53
2019-04-01T03:44:40.981Z,0.40
2019-04-01T03:47:08.434Z,0.47
2019-04-01T03:49:35.776Z,0.50
2019-04-01T03:52:04.462Z,0.40
2019-04-01T03:54:31.822Z,0.43
2019-04-01T03:56:59.205Z,0.40
2019-04-01T03:59:26.538Z,0.50
2019-04-01T04:01:54.399Z,0.50
2019-04-01T04:04:41.331Z,0.40
2019-04-01T04:07:08.805Z,0.50
2019-04-01T04:09:36.121Z,0.70
2019-04-01T04:12:03.676Z,0.60
2019-04-01T04:14:31.021Z,0.47
2019-04-01T04:16:58.487Z,0.60
2019-04-01T04:19:25.755Z,0.33
2019-04-01T04:21:53.297Z,0.33
2019-04-01T04:24:20.902Z,0.37
2019-04-01T04:26:48.252Z,0.57
2019-04-01T04:29:15.613Z,0.70
2019-04-01T04:31:43.039Z,0.57
2019-04-01T04:34:10.396Z,0.50
2019-04-01T04:36:37.848Z,0.60
2019-04-01T04:39:05.566Z,0.70
2019-04-01T04:41:33.376Z,0.37
2019-04-01T04:44:00.834Z,0.37
2019-04-01T04:46:28.216Z,0.47
2019-04-01T04:48:55.690Z,0.30
2019-04-01T04:51:23.139Z,0.57
2019-04-01T04:53:50.505Z,0.80
2019-04-01T04:56:17.947Z,0.70
2019-04-01T04:58:45.217Z,0.50
2019-04-01T05:01:12.860Z,0.37
2019-04-01T05:03:40.327Z,0.60
2019-04-01T05:06:07.675Z,0.63
2019-04-01T05:08:35.070Z,0.70
2019-04-01T05:11:02.700Z,0.90
2019-04-01T05:13:30.248Z,0.60
2019-04-01T05:15:57.710Z,0.60
2019-04-01T05:18:25.010Z,0.50
2019-04-01T05:20:52.594Z,0.50
2019-04-01T05:23:20.800Z,1.10
2019-04-01T05:25:48.634Z,1.47
2019-04-01T05:28:17.287Z,1.30
2019-04-01T05:30:47.322Z,0.60
2019-04-01T05:33:19.191Z,0.80
2019-04-01T05:35:46.403Z,1.23
2019-04-01T05:38:13.751Z,0.70
2019-04-01T05:40:41.162Z,0.83
2019-04-01T05:43:09.626Z,0.77
2019-04-01T05:45:37.009Z,0.60
2019-04-01T05:48:04.303Z,0.50
2019-04-01T05:50:31.520Z,0.50
2019-04-01T05:52:58.831Z,2.80
2019-04-01T05:55:26.278Z,3.07
2019-04-01T05:57:53.689Z,1.17
2019-04-01T06:00:35.188Z,1.50
2019-04-01T06:03:02.580Z,1.33
2019-04-01T06:05:29.861Z,1.20
2019-04-01T06:07:57.217Z,1.67
2019-04-01T06:10:24.556Z,1.60
2019-04-01T06:12:53.391Z,1.37
2019-04-01T06:15:20.725Z,1.43
2019-04-01T06:17:47.947Z,2.10
2019-04-01T06:20:15.436Z,2.07
2019-04-01T06:22:42.935Z,2.40
2019-04-01T06:25:10.254Z,2.40
2019-04-01T06:27:37.602Z,2.50
2019-04-01T06:30:05.279Z,2.03
2019-04-01T06:32:32.628Z,2.20
2019-04-01T06:35:00.403Z,2.27
2019-04-01T06:37:27.748Z,3.93
2019-04-01T06:39:55.101Z,4.13
2019-04-01T06:42:22.560Z,3.90
2019-04-01T06:44:49.862Z,3.53
2019-04-01T06:47:17.333Z,3.50
2019-04-01T06:49:44.650Z,3.30
2019-04-01T06:52:12.108Z,3.77
2019-04-01T06:54:39.432Z,1.93
2019-04-01T06:57:06.773Z,1.00
2019-04-01T06:59:34.416Z,1.57
2019-04-01T07:02:01.906Z,1.00
2019-04-01T07:04:29.745Z,1.00
2019-04-01T07:06:57.076Z,0.90
2019-04-01T07:09:24.417Z,1.10
2019-04-01T07:11:51.708Z,0.97
2019-04-01T07:14:19.186Z,1.00
2019-04-01T07:16:46.513Z,0.90
2019-04-01T07:19:13.750Z,1.00
2019-04-01T07:21:41.180Z,1.00
2019-04-01T07:24:08.624Z,1.20
2019-04-01T07:26:35.841Z,1.00
2019-04-01T07:29:03.270Z,1.10
2019-04-01T07:31:30.598Z,0.50
2019-04-01T07:33:58.447Z,0.80
2019-04-01T07:36:25.888Z,0.70
2019-04-01T07:38:53.317Z,0.83
2019-04-01T07:41:20.744Z,0.60
2019-04-01T07:43:48.120Z,0.70
2019-04-01T07:46:15.363Z,0.60
2019-04-01T07:48:42.585Z,0.50
2019-04-01T07:51:09.928Z,0.87
2019-04-01T07:53:37.206Z,0.50
2019-04-01T07:56:05.483Z,0.40
2019-04-01T07:58:33.999Z,0.30
2019-04-01T08:01:01.246Z,0.60
2019-04-01T08:03:28.656Z,0.40
2019-04-01T08:05:55.897Z,0.30
2019-04-01T08:08:23.227Z,0.30
2019-04-01T08:10:50.443Z,0.40
2019-04-01T08:13:17.700Z,0.60
2019-04-01T08:15:45.434Z,0.67
2019-04-01T08:18:12.798Z,0.30
2019-04-01T08:20:40.201Z,0.40
2019-04-01T08:23:07.657Z,0.33
2019-04-01T08:25:34.978Z,0.70
2019-04-01T08:28:02.278Z,0.50
2019-04-01T08:30:29.625Z,0.40
2019-04-01T08:32:56.983Z,0.40
2019-04-01T08:35:24.420Z,0.40
2019-04-01T08:37:51.745Z,0.57
2019-04-01T08:40:19.093Z,0.60
2019-04-01T08:42:48.999Z,0.30
2019-04-01T08:45:15.818Z,0.60
2019-04-01T08:47:43.253Z,0.40
2019-04-01T08:50:11.624Z,0.20
2019-04-01T08:52:40.417Z,0.30
2019-04-01T08:55:09.291Z,0.20
2019-04-01T08:57:43.937Z,0.23
2019-04-01T09:00:13.931Z,0.27
2019-04-01T09:02:42.439Z,0.13
2019-04-01T09:05:14.236Z,0.27
2019-04-01T09:07:42.161Z,0.37
2019-04-01T09:10:13.790Z,0.20
2019-04-01T09:12:44.754Z,0.20
2019-04-01T09:15:18.995Z,0.30
2019-04-01T09:17:47.375Z,0.37
2019-04-01T09:20:20.057Z,0.30
2019-04-01T09:22:48.026Z,0.50
2019-04-01T09:25:16.549Z,0.40
2019-04-01T09:27:45.001Z,0.20
2019-04-01T09:30:13.582Z,0.20
2019-04-01T09:32:41.870Z,0.20
2019-04-01T09:35:10.087Z,0.30
2019-04-01T09:37:38.125Z,0.10
2019-04-01T09:40:07.124Z,0.30
2019-04-01T09:42:35.401Z,0.20
2019-04-01T09:45:14.325Z,0.20
2019-04-01T09:47:44.824Z,0.50
2019-04-01T09:50:13.345Z,0.30
2019-04-01T09:52:41.320Z,0.37
2019-04-01T09:55:09.803Z,0.33
2019-04-01T09:57:39.720Z,0.30
2019-04-01T10:00:10.656Z,0.40
2019-04-01T10:02:39.025Z,0.30
2019-04-01T10:05:08.151Z,0.10
2019-04-01T10:07:36.246Z,0.20
2019-04-01T10:10:05.003Z,0.13
2019-04-01T10:12:38.825Z,0.30
2019-04-01T10:15:08.740Z,0.30
2019-04-01T10:17:36.811Z,0.20
2019-04-01T10:20:07.735Z,0.40
2019-04-01T10:22:41.871Z,0.20
2019-04-01T10:25:11.726Z,0.23
2019-04-01T10:27:39.943Z,0.30
2019-04-01T10:30:09.047Z,0.10
2019-04-01T10:32:37.220Z,0.20
2019-04-01T10:35:05.936Z,0.30
2019-04-01T10:37:34.422Z,0.20
2019-04-01T10:40:05.876Z,0.30
2019-04-01T10:42:33.952Z,0.30
2019-04-01T10:45:01.925Z,0.17
2019-04-01T10:47:30.547Z,0.20
2019-04-01T10:49:58.798Z,0.30
2019-04-01T10:52:27.025Z,0.30
2019-04-01T10:54:55.822Z,0.30
2019-04-01T10:57:24.151Z,0.40
2019-04-01T10:59:54.332Z,0.10
2019-04-01T11:02:22.362Z,0.23
2019-04-01T11:04:53.471Z,0.30
2019-04-01T11:07:21.602Z,0.20
2019-04-01T11:09:49.749Z,0.20
2019-04-01T11:12:17.979Z,0.20
2019-04-01T11:14:47.849Z,0.30
2019-04-01T11:17:16.122Z,0.20
2019-04-01T11:19:44.897Z,0.20
2019-04-01T11:22:13.199Z,0.23
2019-04-01T11:24:44.245Z,0.30
2019-04-01T11:27:27.471Z,0.40
2019-04-01T11:30:05.368Z,0.20
2019-04-01T11:32:40.370Z,0.20
2019-04-01T11:35:09.779Z,0.20
2019-04-01T11:37:39.923Z,0.20
2019-04-01T11:40:11.466Z,0.17
2019-04-01T11:42:40.816Z,0.20
2019-04-01T11:45:09.648Z,0.20
2019-04-01T11:47:43.858Z,0.23
2019-04-01T11:50:12.122Z,0.30
2019-04-01T11:52:40.308Z,0.17
2019-04-01T11:55:09.880Z,0.30
2019-04-01T11:57:37.744Z,0.33
2019-04-01T12:00:13.396Z,0.30
2019-04-01T12:02:41.777Z,0.20
2019-04-01T12:05:11.828Z,0.30
2019-04-01T12:07:40.148Z,0.23
2019-04-01T12:10:09.181Z,0.40
2019-04-01T12:12:38.072Z,0.13
2019-04-01T12:15:06.433Z,0.30
2019-04-01T12:17:34.625Z,0.40
2019-04-01T12:20:06.116Z,0.20
2019-04-01T12:22:36.211Z,0.30
2019-04-01T12:25:05.108Z,0.30
2019-04-01T12:27:33.248Z,0.57
2019-04-01T12:30:01.735Z,0.80
2019-04-01T12:32:45.286Z,0.30
2019-04-01T12:35:13.609Z,0.20
2019-04-01T12:37:42.035Z,0.40
2019-04-01T12:40:10.826Z,0.30
2019-04-01T12:42:39.251Z,0.20
2019-04-01T12:45:08.343Z,0.50
2019-04-01T12:47:37.008Z,0.20
2019-04-01T12:50:06.439Z,0.47
2019-04-01T12:52:34.838Z,0.37
2019-04-01T12:55:03.313Z,0.40
2019-04-01T12:57:31.963Z,0.30
2019-04-01T13:00:00.042Z,0.40
2019-04-01T13:02:34.088Z,0.40
2019-04-01T13:05:02.222Z,0.30
2019-04-01T13:07:30.540Z,0.30
2019-04-01T13:09:58.930Z,0.13
2019-04-01T13:12:27.589Z,0.43
2019-04-01T13:14:55.658Z,0.40
2019-04-01T13:17:23.261Z,0.40
2019-04-01T13:19:50.604Z,0.30
2019-04-01T13:22:17.856Z,0.40
2019-04-01T13:24:45.100Z,0.40
2019-04-01T13:27:12.335Z,0.40
2019-04-01T13:29:39.609Z,0.50
2019-04-01T13:32:06.945Z,0.53
2019-04-01T13:34:34.335Z,0.40
2019-04-01T13:37:01.844Z,0.90
2019-04-01T13:39:29.260Z,0.40
2019-04-01T13:41:56.709Z,0.53
2019-04-01T13:44:36.019Z,0.40
2019-04-01T13:46:55.826Z,0.40
2019-04-01T13:49:22.179Z,0.40
2019-04-01T13:51:49.560Z,0.30
2019-04-01T13:54:16.912Z,0.30
2019-04-01T13:56:44.252Z,0.20
2019-04-01T13:59:12.580Z,0.37
2019-04-01T14:01:40.224Z,0.30
2019-04-01T14:04:07.794Z,0.40
2019-04-01T14:06:35.123Z,0.43
2019-04-01T14:09:05.128Z,0.33
2019-04-01T14:11:32.548Z,0.10
2019-04-01T14:14:00.218Z,0.90
2019-04-01T14:16:27.580Z,0.30
2019-04-01T14:18:54.809Z,0.37
2019-04-01T14:21:23.396Z,0.40
2019-04-01T14:23:51.040Z,0.40
2019-04-01T14:26:18.356Z,0.13
2019-04-01T14:28:45.716Z,0.30
2019-04-01T14:31:27.658Z,0.30
2019-04-01T14:33:55.101Z,0.33
2019-04-01T14:36:22.481Z,0.50
2019-04-01T14:38:49.930Z,0.33
2019-04-01T14:41:17.389Z,0.27
2019-04-01T14:43:44.915Z,0.40
2019-04-01T14:46:12.145Z,0.20
2019-04-01T14:48:39.632Z,0.33
2019-04-01T14:51:06.953Z,0.20
2019-04-01T14:53:34.329Z,0.40
2019-04-01T14:56:01.609Z,0.30
2019-04-01T14:58:28.931Z,0.40
2019-04-01T15:00:56.282Z,0.30
2019-04-01T15:03:23.609Z,0.27
2019-04-01T15:05:50.872Z,0.20
2019-04-01T15:08:19.490Z,0.20
2019-04-01T15:10:47.051Z,0.30
2019-04-01T15:13:14.362Z,0.30
2019-04-01T15:15:41.829Z,0.30
2019-04-01T15:18:09.987Z,0.40
2019-04-01T15:20:37.419Z,0.30
2019-04-01T15:23:04.769Z,0.30
2019-04-01T15:25:32.128Z,0.20
2019-04-01T15:27:59.518Z,0.30
2019-04-01T15:30:27.522Z,0.40
2019-04-01T15:32:55.211Z,0.30
2019-04-01T15:35:22.424Z,0.30
2019-04-01T15:37:49.715Z,0.40
2019-04-01T15:40:18.131Z,0.40
2019-04-01T15:42:45.745Z,0.30
2019-04-01T15:45:13.080Z,0.60
2019-04-01T15:47:40.444Z,0.80
2019-04-01T15:50:09.367Z,0.53
2019-04-01T15:52:37.131Z,0.50
2019-04-01T15:55:04.974Z,0.40
2019-04-01T15:57:32.292Z,0.30
2019-04-01T15:59:59.976Z,0.30
2019-04-01T16:02:27.514Z,0.30
2019-04-01T16:04:54.850Z,0.27
2019-04-01T16:07:23.819Z,0.40
2019-04-01T16:09:51.965Z,0.60
2019-04-01T16:12:19.362Z,0.40
2019-04-01T16:14:46.725Z,0.40
2019-04-01T16:17:14.184Z,0.20
2019-04-01T16:19:44.540Z,0.50
2019-04-01T16:22:11.897Z,0.30
2019-04-01T16:24:39.316Z,0.20
2019-04-01T16:27:06.568Z,0.20
2019-04-01T16:29:33.960Z,0.20
2019-04-01T16:32:01.283Z,0.30
2019-04-01T16:34:28.503Z,0.23
2019-04-01T16:36:55.879Z,0.37
2019-04-01T16:39:23.235Z,0.30
2019-04-01T16:41:50.619Z,0.30
2019-04-01T16:44:18.034Z,0.20
2019-04-01T16:46:45.368Z,0.33
2019-04-01T16:49:12.888Z,0.40
2019-04-01T16:51:41.451Z,0.30
2019-04-01T16:54:08.944Z,0.13
2019-04-01T16:56:37.926Z,0.27
2019-04-01T16:59:06.016Z,0.20
2019-04-01T17:01:33.371Z,0.20
2019-04-01T17:04:00.663Z,0.30
2019-04-01T17:06:28.027Z,0.10
2019-04-01T17:08:56.140Z,0.20
2019-04-01T17:11:23.522Z,0.30
2019-04-01T17:13:51.249Z,0.40
2019-04-01T17:16:18.614Z,0.20
2019-04-01T17:18:47.808Z,0.40
2019-04-01T17:21:15.064Z,0.50
2019-04-01T17:23:42.371Z,0.57
2019-04-01T17:26:09.828Z,0.43
2019-04-01T17:28:37.218Z,0.40
2019-04-01T17:31:04.570Z,0.20
2019-04-01T17:33:32.267Z,0.30
2019-04-01T17:35:59.652Z,0.30
2019-04-01T17:38:26.977Z,0.10
2019-04-01T17:40:54.290Z,0.30
2019-04-01T17:43:23.228Z,0.37
2019-04-01T17:45:50.796Z,0.20
2019-04-01T17:48:18.162Z,0.33
2019-04-01T17:50:45.385Z,0.20
2019-04-01T17:53:12.795Z,0.20
2019-04-01T17:55:40.141Z,0.20
2019-04-01T17:58:07.500Z,0.30
2019-04-01T18:00:37.177Z,0.23
2019-04-01T18:03:05.111Z,0.17
2019-04-01T18:05:32.983Z,0.20
2019-04-01T18:08:00.347Z,0.40
2019-04-01T18:10:28.347Z,0.50
2019-04-01T18:12:55.957Z,0.77
2019-04-01T18:15:23.302Z,0.40
2019-04-01T18:17:50.584Z,0.50
2019-04-01T18:20:19.992Z,0.30
2019-04-01T18:22:46.986Z,0.50
2019-04-01T18:25:14.561Z,0.50
2019-04-01T18:27:41.873Z,0.40
2019-04-01T18:30:10.215Z,0.60
2019-04-01T18:32:39.572Z,1.03
2019-04-01T18:35:07.629Z,0.80
2019-04-01T18:37:35.032Z,0.70
2019-04-01T18:40:03.235Z,0.50
2019-04-01T18:42:31.303Z,0.20
2019-04-01T18:44:59.096Z,0.20
2019-04-01T18:47:26.441Z,0.20
2019-04-01T18:49:53.799Z,0.10
2019-04-01T18:53:30.213Z,0.20
2019-04-01T18:55:57.516Z,0.40
2019-04-01T18:58:25.178Z,0.17
2019-04-01T19:00:52.784Z,0.20
2019-04-01T19:03:20.020Z,0.40
2019-04-01T19:05:47.264Z,0.20
2019-04-01T19:08:14.687Z,0.60
2019-04-01T19:10:42.080Z,0.40
2019-04-01T19:13:12.457Z,0.30
2019-04-01T19:15:41.829Z,0.50
2019-04-01T19:18:07.724Z,0.20
2019-04-01T19:20:34.957Z,0.10
2019-04-01T19:23:02.520Z,0.40
2019-04-01T19:25:29.958Z,0.20
2019-04-01T19:27:57.643Z,0.40
2019-04-01T19:30:25.381Z,0.30
2019-04-01T19:32:52.612Z,0.40
2019-04-01T19:35:19.824Z,0.20
2019-04-01T19:37:47.195Z,0.30
2019-04-01T19:40:14.709Z,0.40
2019-04-01T19:42:42.068Z,0.23
2019-04-01T19:45:12.370Z,0.30
2019-04-01T19:47:39.754Z,0.40
2019-04-01T19:50:07.440Z,0.23
2019-04-01T19:52:34.788Z,0.60
2019-04-01T19:55:03.278Z,0.60
2019-04-01T19:57:30.663Z,0.40
2019-04-01T19:59:57.894Z,0.30
2019-04-01T20:02:25.348Z,0.60
2019-04-01T20:04:52.672Z,0.70
2019-04-01T20:07:19.905Z,0.80
2019-04-01T20:09:47.604Z,1.17
2019-04-01T20:12:15.958Z,0.70
2019-04-01T20:14:43.180Z,0.60
2019-04-01T20:17:10.524Z,0.50
2019-04-01T20:19:37.839Z,0.40
2019-04-01T20:22:05.198Z,0.40
2019-04-01T20:24:32.661Z,0.30
2019-04-01T20:26:59.918Z,0.50
2019-04-01T20:29:30.050Z,0.23
2019-04-01T20:31:56.239Z,0.30
2019-04-01T20:34:23.488Z,0.43
2019-04-01T20:36:51.136Z,0.50
2019-04-01T20:39:18.341Z,0.50
2019-04-01T20:41:45.836Z,0.47
2019-04-01T20:44:13.164Z,0.70
2019-04-01T20:46:40.469Z,0.40
2019-04-01T20:49:08.947Z,0.50
2019-04-01T20:51:36.283Z,0.60
2019-04-01T20:54:03.587Z,0.70
2019-04-01T20:56:30.907Z,0.47
2019-04-01T20:58:58.280Z,0.50
2019-04-01T21:01:25.803Z,0.50
2019-04-01T21:03:53.172Z,0.63
2019-04-01T21:06:21.151Z,0.50
2019-04-01T21:08:49.240Z,0.30
2019-04-01T21:11:16.575Z,0.60
2019-04-01T21:13:43.975Z,0.53
2019-04-01T21:16:11.231Z,0.43
2019-04-01T21:18:38.652Z,0.60
2019-04-01T21:21:06.003Z,0.60
2019-04-01T21:23:33.212Z,0.63
2019-04-01T21:26:00.558Z,0.67
2019-04-01T21:28:27.821Z,1.47
2019-04-01T21:30:55.233Z,3.80
2019-04-01T21:33:22.682Z,2.57
2019-04-01T21:35:49.997Z,2.87
2019-04-01T21:38:17.454Z,2.83
2019-04-01T21:40:44.780Z,1.93
2019-04-01T21:43:12.138Z,1.20
2019-04-01T21:45:39.550Z,1.10
2019-04-01T21:48:06.922Z,1.63
2019-04-01T21:50:35.139Z,1.03
2019-04-01T21:53:02.791Z,1.40
2019-04-01T21:55:30.030Z,1.20
2019-04-01T21:57:57.331Z,0.63
2019-04-01T22:00:50.332Z,0.73
2019-04-01T22:03:17.700Z,0.80
2019-04-01T22:05:44.931Z,0.60
2019-04-01T22:08:12.140Z,1.20
2019-04-01T22:10:39.468Z,0.90
2019-04-01T22:13:06.716Z,0.77
2019-04-01T22:15:33.961Z,0.60
2019-04-01T22:18:01.275Z,0.70
2019-04-01T22:20:28.668Z,0.60
2019-04-01T22:22:55.979Z,0.83
2019-04-01T22:25:23.239Z,0.93
2019-04-01T22:27:50.625Z,0.87
2019-04-01T22:30:17.944Z,1.00
2019-04-01T22:32:45.297Z,0.90
2019-04-01T22:35:13.612Z,1.10
2019-04-01T22:37:40.976Z,0.87
2019-04-01T22:40:08.586Z,1.03
2019-04-01T22:42:36.157Z,0.80
2019-04-01T22:45:03.713Z,0.90
2019-04-01T22:47:31.068Z,0.70
2019-04-01T22:49:58.394Z,0.97
2019-04-01T22:52:25.713Z,0.83
2019-04-01T22:54:53.269Z,0.90
2019-04-01T22:57:20.484Z,0.90
2019-04-01T22:59:48.261Z,0.80
2019-04-01T23:02:16.479Z,0.70
2019-04-01T23:04:43.795Z,0.80
2019-04-01T23:07:11.060Z,0.80
2019-04-01T23:09:38.375Z,0.67
2019-04-01T23:12:05.632Z,0.80
2019-04-01T23:14:38.028Z,0.80
2019-04-01T23:17:05.352Z,0.43
2019-04-01T23:19:34.337Z,0.63
2019-04-01T23:22:01.919Z,0.70
2019-04-01T23:24:29.281Z,0.50
2019-04-01T23:26:56.636Z,0.50
2019-04-01T23:29:23.982Z,0.77
2019-04-01T23:31:51.407Z,0.60
2019-04-01T23:34:18.646Z,0.60
2019-04-01T23:36:45.876Z,0.60
2019-04-01T23:39:13.216Z,0.63
2019-04-01T23:41:40.424Z,0.57
2019-04-01T23:44:07.783Z,0.53
2019-04-01T23:46:35.260Z,0.50
2019-04-01T23:49:02.625Z,0.53
2019-04-01T23:51:29.955Z,0.60
2019-04-01T23:53:57.402Z,0.60
2019-04-01T23:56:24.651Z,0.70
2019-04-01T23:58:51.892Z,0.80
